Time;durP1;ratioP1;P1;durP2;ratioP2;P2;SDS_P1;SDS_P2;PMS_P1;PMS_P2;Temp;Humidity;BMP_temperature;BMP_pressure;BME280_temperature;BME280_humidity;BME280_pressure;Samples;Min_cycle;Max_cycle;Signal;HPM_P1;HPM_P2
2023/06/14 00:00:09;;;;;;;13.13;7.30;;;;;;;17.60;100.00;101314.59;5205295;28;20017;-69
2023/06/14 00:02:39;;;;;;;11.27;7.03;;;;;;;17.53;100.00;101321.88;5205031;28;20025;-69
2023/06/14 00:05:11;;;;;;;18.23;7.85;;;;;;;17.50;100.00;101314.13;5205091;28;20033;-69
2023/06/14 00:07:42;;;;;;;10.63;7.18;;;;;;;17.53;100.00;101317.28;5204128;28;20111;-69
2023/06/14 00:10:12;;;;;;;12.00;6.50;;;;;;;17.59;100.00;101318.34;5204760;28;20424;-70
2023/06/14 00:12:43;;;;;;;9.70;6.53;;;;;;;17.58;100.00;101316.69;5205125;28;20026;-70
2023/06/14 00:15:13;;;;;;;10.10;6.28;;;;;;;17.57;100.00;101317.69;5204791;28;20025;-69
2023/06/14 00:17:47;;;;;;;10.98;6.22;;;;;;;17.53;100.00;101311.84;5204393;28;20037;-69
2023/06/14 00:20:18;;;;;;;16.50;7.07;;;;;;;17.52;100.00;101314.75;5204425;28;20438;-70
2023/06/14 00:22:48;;;;;;;12.13;6.47;;;;;;;17.47;100.00;101317.22;5204631;28;20437;-70
2023/06/14 00:25:19;;;;;;;11.68;7.20;;;;;;;17.46;100.00;101304.72;5205225;28;20032;-69
2023/06/14 00:27:50;;;;;;;14.55;6.63;;;;;;;17.53;100.00;101311.03;5205568;28;20502;-69
2023/06/14 00:30:20;;;;;;;9.60;6.85;;;;;;;17.59;100.00;101310.22;5204999;28;20056;-69
2023/06/14 00:32:51;;;;;;;10.77;6.95;;;;;;;17.61;100.00;101311.69;5204624;28;20037;-69
2023/06/14 00:35:21;;;;;;;11.68;6.65;;;;;;;17.61;100.00;101316.25;5204369;28;20060;-69
2023/06/14 00:37:54;;;;;;;16.38;7.35;;;;;;;17.56;100.00;101314.16;5203630;28;20108;-69
2023/06/14 00:40:24;;;;;;;14.70;7.82;;;;;;;17.56;100.00;101321.47;5204412;28;20032;-69
2023/06/14 00:42:55;;;;;;;14.73;7.22;;;;;;;17.60;100.00;101320.03;5204418;28;20391;-69
2023/06/14 00:45:25;;;;;;;13.20;7.22;;;;;;;17.60;100.00;101326.28;5204011;28;20044;-69
2023/06/14 00:47:56;;;;;;;13.90;6.45;;;;;;;17.58;100.00;101325.66;5203598;28;20420;-69
2023/06/14 00:50:27;;;;;;;11.95;7.70;;;;;;;17.56;100.00;101325.00;5204417;28;20502;-69
2023/06/14 00:52:57;;;;;;;15.40;8.07;;;;;;;17.55;100.00;101327.94;5204008;28;20036;-69
2023/06/14 00:55:28;;;;;;;12.70;8.50;;;;;;;17.53;100.00;101324.59;5204095;28;20033;-69
2023/06/14 00:57:59;;;;;;;14.20;8.55;;;;;;;17.52;100.00;101329.19;5203327;28;20041;-69
2023/06/14 01:00:29;;;;;;;17.80;8.90;;;;;;;17.52;100.00;101326.47;5204127;28;20021;-69
2023/06/14 01:03:01;;;;;;;16.88;8.90;;;;;;;17.50;100.00;101316.84;5204583;28;20060;-69
2023/06/14 01:05:32;;;;;;;13.82;8.75;;;;;;;17.49;100.00;101320.59;5204563;28;20021;-69
2023/06/14 01:08:40;;;;;;;12.13;8.40;;;;;;;17.46;100.00;101321.81;5204207;28;20021;-69
2023/06/14 01:11:16;;;;;;;14.57;7.93;;;;;;;17.42;100.00;101326.00;5204244;28;20025;-69
2023/06/14 01:13:48;;;;;;;14.32;8.20;;;;;;;17.40;100.00;101321.78;5204351;28;20052;-69
2023/06/14 01:16:20;;;;;;;11.27;7.80;;;;;;;17.39;100.00;101320.97;5203613;28;20454;-69
2023/06/14 01:18:52;;;;;;;13.32;8.70;;;;;;;17.40;100.00;101324.50;5203709;28;20026;-69
2023/06/14 01:21:24;;;;;;;16.40;9.18;;;;;;;17.41;100.00;101318.88;5204213;28;20544;-69
2023/06/14 01:24:14;;;;;;;13.68;7.60;;;;;;;17.40;100.00;101321.78;5203250;28;20486;-69
2023/06/14 01:26:46;;;;;;;15.13;8.13;;;;;;;17.43;100.00;101318.69;5203413;28;20033;-69
2023/06/14 01:29:17;;;;;;;16.40;8.45;;;;;;;17.41;100.00;101318.88;5203908;28;20033;-69
2023/06/14 01:31:49;;;;;;;13.70;8.15;;;;;;;17.39;100.00;101328.25;5204072;28;20087;-69
2023/06/14 01:34:20;;;;;;;22.58;9.40;;;;;;;17.34;100.00;101326.97;5203939;28;20121;-69
2023/06/14 01:36:54;;;;;;;13.88;8.05;;;;;;;17.36;100.00;101326.75;5203384;28;20440;-69
2023/06/14 01:39:26;;;;;;;10.80;7.80;;;;;;;17.39;100.00;101337.22;5203685;28;20089;-69
2023/06/14 01:41:57;;;;;;;13.25;8.73;;;;;;;17.34;100.00;101335.09;5203874;28;20021;-69
2023/06/14 01:44:29;;;;;;;12.70;7.93;;;;;;;17.26;100.00;101332.53;5203809;28;20022;-70
2023/06/14 01:47:00;;;;;;;17.08;9.75;;;;;;;17.19;100.00;101334.38;5202960;28;20032;-69
2023/06/14 01:49:34;;;;;;;15.90;9.35;;;;;;;17.16;100.00;101326.63;5203397;28;20025;-69
2023/06/14 01:52:05;;;;;;;18.70;8.20;;;;;;;17.15;100.00;101337.69;5202939;28;20439;-69
2023/06/14 01:54:41;;;;;;;13.45;8.35;;;;;;;17.10;100.00;101327.44;5203705;28;20033;-69
2023/06/14 01:57:20;;;;;;;15.48;9.30;;;;;;;17.07;100.00;101331.41;5203209;28;20036;-69
2023/06/14 01:59:56;;;;;;;16.10;9.65;;;;;;;17.00;100.00;101338.63;5203571;28;20037;-69
2023/06/14 02:02:26;;;;;;;18.27;9.27;;;;;;;16.98;100.00;101342.56;5203258;28;20482;-69
2023/06/14 02:04:57;;;;;;;16.77;9.60;;;;;;;16.94;100.00;101327.72;5203367;28;20034;-69
2023/06/14 02:07:28;;;;;;;13.55;8.90;;;;;;;16.91;100.00;101323.53;5202855;28;20033;-69
2023/06/14 02:09:59;;;;;;;13.82;8.57;;;;;;;16.91;100.00;101331.66;5203507;28;20446;-69
2023/06/14 02:12:30;;;;;;;16.00;8.68;;;;;;;16.91;100.00;101338.94;5203312;28;20064;-69
2023/06/14 02:15:00;;;;;;;17.45;8.88;;;;;;;16.88;100.00;101329.34;5203204;28;20025;-69
2023/06/14 02:17:31;;;;;;;17.17;9.77;;;;;;;16.86;100.00;101338.69;5202240;28;20017;-69
2023/06/14 02:20:03;;;;;;;15.63;9.50;;;;;;;16.83;100.00;101335.38;5203235;28;20030;-69
2023/06/14 02:22:34;;;;;;;16.02;9.23;;;;;;;16.80;100.00;101326.78;5203064;28;20092;-69
2023/06/14 02:25:06;;;;;;;16.10;9.40;;;;;;;16.76;100.00;101333.63;5203107;28;20112;-69
2023/06/14 02:27:36;;;;;;;19.65;10.65;;;;;;;16.72;100.00;101329.66;5202395;28;20033;-69
2023/06/14 02:30:07;;;;;;;16.02;10.48;;;;;;;16.67;100.00;101330.19;5202931;28;20372;-69
2023/06/14 02:32:38;;;;;;;13.05;8.52;;;;;;;16.58;100.00;101329.47;5203261;28;20030;-69
2023/06/14 02:35:09;;;;;;;15.52;10.02;;;;;;;16.65;100.00;101328.69;5202807;28;20025;-69
2023/06/14 02:37:40;;;;;;;13.80;8.90;;;;;;;16.65;100.00;101331.41;5202539;28;20025;-69
2023/06/14 02:40:11;;;;;;;15.77;9.65;;;;;;;16.66;100.00;101314.13;5203166;28;20037;-69
2023/06/14 02:42:41;;;;;;;20.77;10.23;;;;;;;16.64;100.00;101330.56;5203029;28;20029;-69
2023/06/14 02:45:12;;;;;;;15.48;9.73;;;;;;;16.59;100.00;101333.03;5202928;28;20027;-69
2023/06/14 02:47:42;;;;;;;22.50;9.27;;;;;;;16.57;100.00;101333.22;5202249;28;20048;-69
2023/06/14 02:50:13;;;;;;;15.10;8.63;;;;;;;16.55;100.00;101327.16;5202800;28;20410;-69
2023/06/14 02:52:44;;;;;;;15.35;9.35;;;;;;;16.55;100.00;101329.03;5202755;28;20026;-69
2023/06/14 02:55:14;;;;;;;15.82;9.55;;;;;;;16.53;100.00;101331.94;5202973;28;20483;-69
2023/06/14 02:57:47;;;;;;;14.63;9.73;;;;;;;16.53;100.00;101328.38;5202447;28;20022;-69
2023/06/14 03:00:19;;;;;;;18.00;9.20;;;;;;;16.49;100.00;101327.94;5202903;28;20029;-69
2023/06/14 03:02:51;;;;;;;19.38;8.90;;;;;;;16.47;100.00;101331.88;5205423;28;20032;-69
2023/06/14 03:05:21;;;;;;;14.05;9.15;;;;;;;16.46;100.00;101333.72;5206865;28;20033;-69
2023/06/14 03:07:53;;;;;;;20.35;10.23;;;;;;;16.42;100.00;101332.44;5206340;28;20044;-69
2023/06/14 03:10:28;;;;;;;14.45;9.23;;;;;;;16.38;100.00;101330.31;5206533;28;20500;-69
2023/06/14 03:12:58;;;;;;;16.10;9.55;;;;;;;16.36;100.00;101343.19;5207092;28;20528;-69
2023/06/14 03:15:29;;;;;;;16.90;9.20;;;;;;;16.33;100.00;101343.59;5206146;28;20124;-69
2023/06/14 03:17:59;;;;;;;14.63;8.43;;;;;;;16.29;100.00;101348.53;5206392;28;20024;-69
2023/06/14 03:20:32;;;;;;;15.23;9.27;;;;;;;16.26;100.00;101348.91;5206526;28;20414;-69
2023/06/14 03:23:04;;;;;;;17.08;8.98;;;;;;;16.22;100.00;101359.31;5206495;28;20030;-69
2023/06/14 03:25:38;;;;;;;19.00;9.00;;;;;;;16.20;100.00;101355.94;5206157;28;20032;-69
2023/06/14 03:28:08;;;;;;;17.15;8.57;;;;;;;16.17;100.00;101355.50;5206210;28;20029;-70
2023/06/14 03:30:39;;;;;;;16.90;8.38;;;;;;;16.12;100.00;101357.94;5206476;28;20025;-69
2023/06/14 03:33:10;;;;;;;17.10;8.52;;;;;;;16.11;100.00;101367.06;5206550;28;20025;-69
2023/06/14 03:35:41;;;;;;;15.32;9.13;;;;;;;16.11;100.00;101369.78;5204704;28;20124;-69
2023/06/14 03:38:12;;;;;;;13.25;8.25;;;;;;;16.10;100.00;101371.66;5205988;28;20387;-69
2023/06/14 03:40:44;;;;;;;17.80;8.57;;;;;;;16.08;100.00;101372.88;5206260;28;20025;-69
2023/06/14 03:43:14;;;;;;;17.20;8.18;;;;;;;16.07;100.00;101373.91;5203744;28;20021;-69
2023/06/14 03:45:45;;;;;;;24.52;9.23;;;;;;;16.06;100.00;101370.34;5205520;28;20036;-69
2023/06/14 03:48:16;;;;;;;18.83;8.45;;;;;;;16.07;100.00;101379.31;5206101;28;20438;-70
2023/06/14 03:50:47;;;;;;;24.27;9.18;;;;;;;16.05;100.00;101374.06;5205679;28;20025;-69
2023/06/14 03:53:20;;;;;;;16.13;8.07;;;;;;;16.05;100.00;101379.50;5205704;28;20075;-69
2023/06/14 03:58:36;;;;;;;16.48;8.63;;;;;;;16.06;100.00;101378.47;5205560;28;20029;-70
2023/06/14 04:01:07;;;;;;;17.67;7.60;;;;;;;16.09;100.00;101377.25;5205057;28;20033;-69
2023/06/14 04:03:40;;;;;;;16.95;8.20;;;;;;;16.11;100.00;101384.13;5205568;28;20022;-69
2023/06/14 04:06:10;;;;;;;15.15;7.78;;;;;;;16.14;100.00;101380.22;5204839;28;20031;-69
2023/06/14 04:08:41;;;;;;;16.60;8.18;;;;;;;16.17;100.00;101380.69;5205404;28;20025;-69
2023/06/14 04:11:11;;;;;;;17.35;7.85;;;;;;;16.20;100.00;101391.13;5204060;28;20036;-69
2023/06/14 04:13:42;;;;;;;12.43;7.10;;;;;;;16.24;100.00;101394.31;5203863;28;20017;-69
2023/06/14 04:16:13;;;;;;;10.65;7.30;;;;;;;16.26;100.00;101403.91;5204509;28;20035;-69
2023/06/14 04:18:43;;;;;;;14.15;7.40;;;;;;;16.29;100.00;101403.53;5204998;28;20027;-69
2023/06/14 04:21:14;;;;;;;14.38;8.13;;;;;;;16.33;100.00;101405.88;5205054;28;20489;-70
2023/06/14 04:23:44;;;;;;;17.95;7.85;;;;;;;16.34;100.00;101405.66;5204601;28;20391;-70
2023/06/14 04:26:15;;;;;;;15.15;7.75;;;;;;;16.38;100.00;101406.13;5204482;28;20721;-69
2023/06/14 04:28:46;;;;;;;16.80;7.80;;;;;;;16.41;100.00;101406.56;5204714;28;20029;-69
2023/06/14 04:31:18;;;;;;;17.40;8.05;;;;;;;16.44;100.00;101406.19;5204996;28;20025;-69
2023/06/14 04:33:50;;;;;;;14.48;7.78;;;;;;;16.48;100.00;101409.38;5205042;28;20021;-70
2023/06/14 04:36:22;;;;;;;15.68;8.45;;;;;;;16.51;100.00;101407.09;5204150;28;20475;-69
2023/06/14 04:38:54;;;;;;;24.65;7.88;;;;;;;16.56;100.00;101414.66;5204494;28;20687;-69
2023/06/14 04:41:30;;;;;;;25.30;9.30;;;;;;;16.58;100.00;101413.44;5204722;28;20056;-69
2023/06/14 04:44:02;;;;;;;20.27;8.68;;;;;;;16.61;100.00;101422.22;5204814;28;20037;-69
2023/06/14 04:46:32;;;;;;;19.98;8.35;;;;;;;16.65;100.00;101424.34;5203786;28;20026;-70
2023/06/14 04:49:03;;;;;;;21.75;7.93;;;;;;;16.69;100.00;101419.38;5204485;28;20390;-70
2023/06/14 04:51:34;;;;;;;20.83;9.05;;;;;;;16.72;100.00;101417.19;5204583;28;20477;-69
2023/06/14 04:54:05;;;;;;;17.38;8.05;;;;;;;16.78;100.00;101412.84;5204769;28;20060;-70
2023/06/14 04:56:37;;;;;;;19.08;8.48;;;;;;;16.83;100.00;101413.09;5204402;28;20116;-70
2023/06/14 04:59:08;;;;;;;15.45;7.75;;;;;;;16.86;100.00;101415.41;5204615;28;20030;-70
2023/06/14 05:01:38;;;;;;;18.48;7.95;;;;;;;16.92;100.00;101413.78;5204458;28;20057;-70
2023/06/14 05:04:09;;;;;;;14.85;8.05;;;;;;;16.97;100.00;101422.22;5204543;28;20035;-70
2023/06/14 05:06:39;;;;;;;18.35;7.57;;;;;;;17.02;100.00;101419.75;5199021;28;20024;-69
2023/06/14 05:09:10;;;;;;;18.70;8.95;;;;;;;17.09;100.00;101426.91;5194145;28;20437;-70
2023/06/14 05:11:43;;;;;;;16.00;8.85;;;;;;;17.17;100.00;101428.66;5202831;28;20040;-70
2023/06/14 05:14:14;;;;;;;18.20;9.05;;;;;;;17.22;100.00;101423.47;5203493;28;20032;-70
2023/06/14 05:16:45;;;;;;;12.95;8.00;;;;;;;17.29;100.00;101420.81;5202675;28;20395;-70
2023/06/14 05:19:18;;;;;;;13.80;8.70;;;;;;;17.35;100.00;101420.00;5204248;28;20035;-70
2023/06/14 05:21:48;;;;;;;17.83;8.52;;;;;;;17.44;100.00;101426.13;5203963;28;20395;-70
2023/06/14 05:24:19;;;;;;;17.52;8.45;;;;;;;17.52;100.00;101424.13;5203638;28;20029;-70
2023/06/14 05:26:50;;;;;;;22.00;9.57;;;;;;;17.59;100.00;101422.28;5203023;28;20040;-70
2023/06/14 05:29:20;;;;;;;16.75;8.82;;;;;;;17.68;100.00;101425.69;5203880;28;20406;-70
2023/06/14 05:31:51;;;;;;;15.80;9.07;;;;;;;17.78;100.00;101434.34;5203802;28;20021;-70
2023/06/14 05:34:21;;;;;;;18.02;8.52;;;;;;;17.85;100.00;101429.78;5203959;28;20117;-70
2023/06/14 05:36:51;;;;;;;16.30;8.77;;;;;;;17.98;100.00;101436.34;5202599;28;20029;-70
2023/06/14 05:39:23;;;;;;;17.75;8.73;;;;;;;18.08;100.00;101436.81;5203807;28;20025;-70
2023/06/14 05:41:55;;;;;;;16.92;8.68;;;;;;;18.19;100.00;101436.22;5203343;28;20570;-70
2023/06/14 05:44:25;;;;;;;22.08;9.48;;;;;;;18.31;100.00;101441.91;5203639;28;20475;-70
2023/06/14 05:46:56;;;;;;;21.35;9.48;;;;;;;18.45;100.00;101442.78;5201880;28;20032;-70
2023/06/14 05:49:26;;;;;;;20.85;8.05;;;;;;;18.57;100.00;101436.56;5208617;28;20024;-70
2023/06/14 05:51:56;;;;;;;28.35;9.13;;;;;;;18.72;100.00;101443.72;5203610;28;20025;-70
2023/06/14 05:54:27;;;;;;;23.05;9.55;;;;;;;18.90;100.00;101441.28;5203406;28;20031;-70
2023/06/14 05:59:43;;;;;;;18.02;8.30;;;;;;;19.45;100.00;101451.97;5203112;28;20391;-70
2023/06/14 06:02:14;;;;;;;18.17;9.10;;;;;;;20.02;100.00;101451.25;5203513;28;20029;-70
2023/06/14 06:04:44;;;;;;;20.02;9.10;;;;;;;20.88;100.00;101459.09;5203288;28;20112;-70
2023/06/14 06:07:16;;;;;;;17.55;8.95;;;;;;;21.70;100.00;101449.00;5202708;28;20029;-70
2023/06/14 06:09:46;;;;;;;16.55;7.95;;;;;;;22.46;100.00;101455.09;5203538;28;20018;-70
2023/06/14 06:12:16;;;;;;;16.70;8.10;;;;;;;23.09;100.00;101459.25;5202677;28;20033;-71
2023/06/14 06:14:47;;;;;;;16.55;8.60;;;;;;;23.68;100.00;101455.56;5203219;28;20079;-70
2023/06/14 06:17:17;;;;;;;17.23;8.60;;;;;;;24.27;100.00;101458.22;5202066;28;20029;-71
2023/06/14 06:19:48;;;;;;;12.68;8.15;;;;;;;24.62;98.84;101460.03;5203316;28;20027;-71
2023/06/14 06:22:18;;;;;;;16.23;8.15;;;;;;;24.91;98.22;101463.63;5202736;28;20044;-71
2023/06/14 06:24:49;;;;;;;16.73;8.70;;;;;;;25.24;93.70;101469.16;5202555;28;20033;-71
2023/06/14 06:27:20;;;;;;;11.93;7.80;;;;;;;25.37;88.78;101464.44;5202419;28;20026;-71
2023/06/14 06:29:51;;;;;;;13.50;7.75;;;;;;;25.58;85.18;101471.91;5202827;28;20053;-71
2023/06/14 06:32:21;;;;;;;14.23;8.10;;;;;;;25.79;88.79;101464.81;5203003;28;20040;-71
2023/06/14 06:34:52;;;;;;;14.55;7.75;;;;;;;26.03;88.12;101469.00;5202872;28;20033;-71
2023/06/14 06:37:23;;;;;;;15.05;7.68;;;;;;;26.30;83.09;101471.84;5201308;28;20108;-71
2023/06/14 06:39:53;;;;;;;13.80;7.35;;;;;;;26.52;77.49;101477.38;5202776;28;20021;-71
2023/06/14 06:42:24;;;;;;;13.95;7.63;;;;;;;26.82;79.06;101484.31;5202728;28;20032;-71
2023/06/14 06:44:54;;;;;;;16.20;8.25;;;;;;;27.17;84.02;101475.59;5202728;28;20045;-71
2023/06/14 06:47:25;;;;;;;12.75;8.18;;;;;;;27.42;70.28;101482.41;5202494;28;20364;-71
2023/06/14 06:49:55;;;;;;;12.27;6.85;;;;;;;27.38;73.09;101475.75;5202318;28;20021;-71
2023/06/14 06:52:26;;;;;;;16.40;7.68;;;;;;;27.54;69.12;101486.63;5202557;28;20025;-71
2023/06/14 06:54:57;;;;;;;12.38;7.25;;;;;;;27.65;66.18;101486.69;5202803;28;20120;-71
2023/06/14 06:57:29;;;;;;;12.27;6.70;;;;;;;27.91;67.69;101482.22;5202160;28;20025;-71
2023/06/14 06:59:59;;;;;;;14.98;7.65;;;;;;;27.93;61.59;101491.88;5203028;28;20522;-71
2023/06/14 07:02:30;;;;;;;14.45;7.35;;;;;;;28.18;64.03;101482.09;5202374;28;20112;-71
2023/06/14 07:05:01;;;;;;;13.68;7.80;;;;;;;28.26;59.23;101489.84;5202678;28;20482;-71
2023/06/14 07:07:31;;;;;;;13.52;7.30;;;;;;;28.39;61.72;101487.44;5201980;28;20036;-71
2023/06/14 07:10:04;;;;;;;14.13;7.45;;;;;;;28.54;61.65;101481.16;5202782;28;20037;-71
2023/06/14 07:12:39;;;;;;;11.88;7.63;;;;;;;28.75;59.99;101493.09;5202402;28;20120;-72
2023/06/14 07:15:10;;;;;;;18.90;7.68;;;;;;;28.97;56.78;101494.81;5202615;28;20026;-71
2023/06/14 07:17:41;;;;;;;11.40;6.75;;;;;;;29.19;53.74;101500.09;5201665;28;20106;-72
2023/06/14 07:20:12;;;;;;;10.07;5.97;;;;;;;29.12;54.59;101495.69;5203457;28;20533;-72
2023/06/14 07:22:43;;;;;;;13.43;7.43;;;;;;;29.22;50.37;101494.88;5202418;28;20029;-72
2023/06/14 07:25:14;;;;;;;12.68;6.75;;;;;;;29.26;52.49;101497.88;5201824;28;20026;-72
2023/06/14 07:27:45;;;;;;;19.15;7.57;;;;;;;29.15;52.02;101500.63;5201922;28;20021;-72
2023/06/14 07:30:16;;;;;;;16.77;7.13;;;;;;;29.24;54.08;101500.09;5202272;28;20029;-72
2023/06/14 07:32:46;;;;;;;10.45;6.72;;;;;;;29.38;53.58;101502.03;5202334;28;20442;-72
2023/06/14 07:35:17;;;;;;;11.70;7.03;;;;;;;29.66;53.16;101497.06;5202229;28;20038;-72
2023/06/14 07:37:48;;;;;;;13.77;6.93;;;;;;;29.78;53.78;101502.31;5195366;28;20072;-72
2023/06/14 07:40:18;;;;;;;14.90;7.72;;;;;;;30.01;52.43;101509.16;5201631;28;20109;-72
2023/06/14 07:42:50;;;;;;;9.10;5.82;;;;;;;30.04;54.25;101506.69;5201831;28;20028;-72
2023/06/14 07:45:20;;;;;;;13.55;6.95;;;;;;;30.33;51.53;101512.44;5202095;28;20391;-72
2023/06/14 07:47:51;;;;;;;12.70;7.28;;;;;;;30.23;47.63;101508.88;5200749;28;20018;-72
2023/06/14 07:50:22;;;;;;;11.95;7.40;;;;;;;29.93;47.02;101514.19;5205291;28;20104;-72
2023/06/14 07:52:52;;;;;;;12.23;7.53;;;;;;;29.95;51.19;101513.88;5205576;28;20500;-72
2023/06/14 07:55:25;;;;;;;12.13;7.20;;;;;;;29.98;52.09;101518.88;5205746;28;20117;-72
2023/06/14 07:57:55;;;;;;;12.35;8.15;;;;;;;29.79;47.98;101515.03;5205121;28;20049;-72
2023/06/14 08:00:26;;;;;;;14.90;7.35;;;;;;;29.85;50.35;101519.44;5205847;28;20479;-72
2023/06/14 08:02:58;;;;;;;13.88;7.22;;;;;;;30.09;46.22;101520.50;5204976;28;20236;-72
2023/06/14 08:05:29;;;;;;;14.23;7.45;;;;;;;29.81;45.02;101521.94;5205318;28;20029;-72
2023/06/14 08:08:00;;;;;;;18.25;8.20;;;;;;;29.97;47.37;101530.19;5204936;28;20540;-73
2023/06/14 08:10:30;;;;;;;17.77;7.70;;;;;;;30.23;46.97;101523.53;5205629;28;20022;-72
2023/06/14 08:13:02;;;;;;;14.00;6.47;;;;;;;30.31;50.81;101522.09;5205371;28;20029;-72
2023/06/14 08:15:32;;;;;;;13.50;6.65;;;;;;;30.56;49.46;101523.94;5204932;28;20022;-72
2023/06/14 08:18:03;;;;;;;11.63;6.90;;;;;;;30.83;48.17;101526.34;5204602;28;20032;-72
2023/06/14 08:20:35;;;;;;;12.23;6.32;;;;;;;30.95;45.84;101532.34;5205251;28;20462;-72
2023/06/14 08:23:05;;;;;;;14.23;6.68;;;;;;;31.05;43.78;101526.75;5205124;28;20112;-73
2023/06/14 08:25:36;;;;;;;9.77;7.18;;;;;;;31.16;47.75;101525.56;5204925;28;20108;-72
2023/06/14 08:28:06;;;;;;;12.70;6.47;;;;;;;31.12;42.74;101527.22;5204803;28;20056;-72
2023/06/14 08:30:37;;;;;;;10.20;5.88;;;;;;;31.24;48.09;101526.06;5205347;28;20030;-72
2023/06/14 08:33:07;;;;;;;13.45;6.05;;;;;;;31.30;44.76;101531.31;5205183;28;20056;-72
2023/06/14 08:35:39;;;;;;;9.35;5.90;;;;;;;31.14;43.43;101530.56;5204877;28;20044;-72
2023/06/14 08:38:11;;;;;;;11.63;6.63;;;;;;;31.10;41.37;101534.19;5203226;28;20037;-72
2023/06/14 08:40:42;;;;;;;17.77;6.50;;;;;;;30.85;38.96;101527.69;5205149;28;20029;-72
2023/06/14 08:43:12;;;;;;;17.67;7.30;;;;;;;30.67;40.55;101525.53;5204691;28;20364;-72
2023/06/14 08:45:45;;;;;;;12.68;6.10;;;;;;;30.49;42.95;101528.97;5204567;28;20156;-72
2023/06/14 08:48:17;;;;;;;13.55;6.50;;;;;;;30.34;42.33;101530.69;5204613;28;20429;-72
2023/06/14 08:50:48;;;;;;;12.07;6.10;;;;;;;30.42;43.87;101524.56;5204686;28;20057;-72
2023/06/14 08:53:19;;;;;;;16.98;7.30;;;;;;;30.59;42.90;101521.44;5204614;28;20071;-72
2023/06/14 08:55:50;;;;;;;12.43;6.03;;;;;;;30.72;42.81;101527.50;5204072;28;20080;-72
2023/06/14 08:58:24;;;;;;;9.43;5.78;;;;;;;30.97;43.03;101527.34;5203537;28;20021;-72
2023/06/14 09:00:55;;;;;;;9.67;5.40;;;;;;;31.30;45.37;101530.47;5204106;28;20093;-72
2023/06/14 09:03:29;;;;;;;17.55;6.00;;;;;;;31.53;40.90;101529.75;5204287;28;20288;-72
2023/06/14 09:06:00;;;;;;;13.63;6.33;;;;;;;31.70;41.05;101532.91;5203979;28;20614;-72
2023/06/14 09:08:31;;;;;;;10.75;5.35;;;;;;;31.75;39.22;101533.97;5204443;28;20283;-72
2023/06/14 09:11:02;;;;;;;10.27;6.13;;;;;;;31.57;39.68;101533.56;5204191;28;20518;-72
2023/06/14 09:13:32;;;;;;;13.05;5.53;;;;;;;31.55;39.44;101535.00;5205115;28;20036;-72
2023/06/14 09:16:03;;;;;;;18.48;6.90;;;;;;;31.66;39.69;101533.78;5204505;28;20049;-72
2023/06/14 09:18:36;;;;;;;14.48;6.30;;;;;;;31.57;36.41;101539.09;5203875;28;20064;-72
2023/06/14 09:21:08;;;;;;;12.00;5.70;;;;;;;31.57;38.21;101533.56;5204224;28;20021;-72
2023/06/14 09:23:40;;;;;;;11.68;5.68;;;;;;;31.61;37.79;101544.91;5203764;28;20029;-72
2023/06/14 09:26:13;;;;;;;13.68;5.55;;;;;;;31.66;34.20;101544.88;5203443;28;20053;-72
2023/06/14 09:28:46;;;;;;;12.65;5.18;;;;;;;31.59;34.13;101545.22;5203914;28;20040;-72
2023/06/14 09:31:18;;;;;;;9.93;4.95;;;;;;;31.60;35.89;101544.09;5204196;28;20049;-72
2023/06/14 09:33:49;;;;;;;8.25;4.93;;;;;;;31.48;34.50;101546.44;5202856;28;20403;-72
2023/06/14 09:36:23;;;;;;;15.63;5.60;;;;;;;31.67;35.82;101547.34;5203253;28;20028;-72
2023/06/14 09:38:55;;;;;;;12.40;5.10;;;;;;;31.49;33.24;101545.31;5203739;28;20483;-72
2023/06/14 09:41:31;;;;;;;15.77;5.13;;;;;;;31.24;35.77;101545.47;5203987;28;20033;-72
2023/06/14 09:44:04;;;;;;;10.77;4.35;;;;;;;31.38;33.37;101550.09;5203782;28;20032;-72
2023/06/14 09:46:36;;;;;;;11.00;4.95;;;;;;;31.34;34.46;101551.78;5203072;28;20037;-72
2023/06/14 09:49:08;;;;;;;10.07;5.03;;;;;;;31.36;37.48;101546.78;5203367;28;20029;-72
2023/06/14 09:51:43;;;;;;;12.38;4.47;;;;;;;31.32;33.60;101551.22;5203649;28;20228;-72
2023/06/14 09:54:16;;;;;;;12.82;4.40;;;;;;;31.48;36.42;101549.19;5203350;28;20017;-72
2023/06/14 09:56:49;;;;;;;13.48;5.35;;;;;;;31.63;37.28;101548.22;5203063;28;20061;-72
2023/06/14 09:59:29;;;;;;;13.57;5.03;;;;;;;31.62;35.92;101546.56;5203344;28;20017;-72
2023/06/14 10:02:05;;;;;;;12.40;5.20;;;;;;;31.71;36.38;101547.59;5203756;28;20517;-72
2023/06/14 10:04:36;;;;;;;11.35;4.80;;;;;;;31.74;34.17;101546.19;5204296;28;20116;-72
2023/06/14 10:07:07;;;;;;;19.35;4.70;;;;;;;31.89;34.88;101554.41;5202653;28;20025;-72
2023/06/14 10:09:39;;;;;;;9.68;3.88;;;;;;;31.56;32.41;101559.66;5203181;28;20091;-72
2023/06/14 10:12:10;;;;;;;8.18;4.38;;;;;;;31.31;31.51;101563.44;5201992;28;20091;-72
2023/06/14 10:14:41;;;;;;;7.70;4.32;;;;;;;30.87;31.78;101557.88;5203205;28;20021;-72
2023/06/14 10:17:21;;;;;;;9.05;4.10;;;;;;;30.61;31.43;101560.75;5199751;28;20036;-72
2023/06/14 10:20:26;;;;;;;12.02;4.55;;;;;;;30.56;32.33;101554.41;5198007;28;20026;-72
2023/06/14 10:23:03;;;;;;;9.77;4.15;;;;;;;30.54;32.61;101546.38;5202785;28;20028;-72
2023/06/14 10:25:34;;;;;;;9.75;4.30;;;;;;;30.71;35.46;101553.53;5206111;28;20515;-72
2023/06/14 10:28:23;;;;;;;12.63;4.70;;;;;;;30.96;35.80;101547.84;5209331;28;20021;-72
2023/06/14 10:31:22;;;;;;;9.35;4.05;;;;;;;31.26;34.29;101546.00;5205468;28;20095;-72
2023/06/14 10:33:53;;;;;;;14.40;4.45;;;;;;;31.27;29.90;101553.22;5206782;28;20037;-72
2023/06/14 10:36:27;;;;;;;11.75;4.13;;;;;;;30.93;30.72;101553.97;5207039;28;20033;-72
2023/06/14 10:39:17;;;;;;;8.73;4.18;;;;;;;30.99;31.97;101557.53;5205786;28;20405;-72
2023/06/14 10:42:06;;;;;;;9.13;3.83;;;;;;;30.82;29.92;101561.50;5205635;28;20029;-72
2023/06/14 10:44:37;;;;;;;10.95;4.55;;;;;;;30.69;30.84;101553.78;5206422;28;20026;-72
2023/06/14 10:47:27;;;;;;;8.82;3.58;;;;;;;30.72;32.37;101542.16;5205747;28;20395;-72
2023/06/14 10:50:05;;;;;;;10.50;3.65;;;;;;;30.73;32.54;101545.78;5203760;28;20162;-72
2023/06/14 10:52:52;;;;;;;9.20;4.00;;;;;;;30.66;30.11;101546.03;5211983;28;20032;-72
2023/06/14 10:55:22;;;;;;;10.38;4.40;;;;;;;30.70;30.93;101555.47;5203468;28;20478;-72
2023/06/14 10:57:56;;;;;;;9.25;3.97;;;;;;;30.85;30.87;101549.84;5213848;28;20040;-72
2023/06/14 11:00:31;;;;;;;8.07;4.07;;;;;;;30.73;29.46;101548.56;5206551;28;20029;-72
2023/06/14 11:03:21;;;;;;;5.88;4.28;;;;;;;30.36;29.53;101547.81;5207880;28;20453;-72
2023/06/14 11:05:54;;;;;;;7.85;3.53;;;;;;;30.30;31.57;101548.13;5208701;28;20053;-72
2023/06/14 11:08:36;;;;;;;23.45;4.25;;;;;;;30.22;31.04;101549.53;5205876;28;20088;-72
2023/06/14 11:11:08;;;;;;;6.43;3.97;;;;;;;30.29;31.49;101543.72;5202857;28;20386;-72
2023/06/14 11:13:41;;;;;;;11.65;3.90;;;;;;;30.27;31.52;101538.44;5207622;28;20022;-72
2023/06/14 11:16:13;;;;;;;13.38;3.85;;;;;;;30.35;32.83;101535.09;5205195;28;20040;-72
2023/06/14 11:18:45;;;;;;;10.43;4.03;;;;;;;30.69;33.96;101529.69;5202508;28;20025;-72
2023/06/14 11:21:17;;;;;;;6.80;3.80;;;;;;;30.77;31.20;101533.00;5207662;28;20471;-72
2023/06/14 11:23:50;;;;;;;10.25;4.00;;;;;;;30.64;32.07;101531.66;5214623;28;20079;-72
2023/06/14 11:26:40;;;;;;;10.57;3.92;;;;;;;30.73;31.90;101537.47;5211224;28;20475;-72
2023/06/14 11:29:10;;;;;;;11.30;3.90;;;;;;;30.64;31.21;101538.03;5215119;28;20049;-72
2023/06/14 11:31:44;;;;;;;5.88;4.10;;;;;;;30.49;32.54;101531.75;5211533;28;21526;-72
2023/06/14 11:34:15;;;;;;;12.85;4.13;;;;;;;30.34;30.49;101538.16;5208719;28;20014;-72
2023/06/14 11:36:47;;;;;;;7.88;3.90;;;;;;;30.37;30.75;101532.91;5205240;28;20021;-72
2023/06/14 11:39:24;;;;;;;9.32;3.45;;;;;;;30.32;30.81;101523.75;5203023;28;20021;-72
2023/06/14 11:41:55;;;;;;;9.18;3.83;;;;;;;30.31;31.97;101522.94;5205223;28;20026;-72